Arcola, MS

12:12 PM CST on December 08, 2016 (GMT -0600)
Mississippi Delta | | Change Station

Elev 126 ft 33.40 °N, 90.91 °W | Updated 16 seconds ago

Partly Cloudy
Partly Cloudy
41.4 °F
Feels Like 41 °F
N
2.9
Wind Variable Wind from NW
Gusts 4.9 mph

Today
High -- | Low -- °F
--% Chance of Precip.
Yesterday
High -- | Low -- °F
Precip. -- in
Pressure 30.54 in
Visibility 10.0 miles
Clouds Clear
Windchill 41 °F
Dew Point 27 °F
Humidity 56%
Rainfall 0.00 in
Snow Depth Not available.
6:55 AM 4:56 PM
Waxing Gibbous, 65% visible
METAR KGLH 081753Z AUTO 36013KT 10SM CLR 05/M02 A3051 RMK AO2 SLP341 T00501022 10050 20033 50007
Pressure 30.54 in
Visibility 10.0 miles
Clouds Clear
Windchill 41 °F
Dew Point 27 °F
Humidity 56%
Rainfall 0.00 in
Snow Depth Not available.
6:55 AM 4:56 PM
Waxing Gibbous, 65% visible
METAR KGLH 081753Z AUTO 36013KT 10SM CLR 05/M02 A3051 RMK AO2 SLP341 T00501022 10050 20033 50007

10-Day Weather Forecast

Almanac

Astronomy

Dec. 08, 2016 Rise Set
Actual Time
Civil Twilight
Nautical Twilight
Astronomical Twilight
Moon
Length of Visible Light
Length of Day
Tomorrow will be .
, % of the Moon is Illuminated

Today's Extremes

State Highs State Lows

Community

WunderPhotos

Upload Photos

1,956,277 photos uploaded!

WunderBlog® & News

Nearby

Air Quality

  Air Quality AQ Index Pollutant
Not available.

Snow Depth

Station Depth Elevation

Earthquake Activity

City Distance Mag. Time & Date
Minimum magnitude displayed is 2.5.

Coastal Water Temperatures

Place Temperature

Stations

Nearby Weather Stations

Station Location Temp. Windchill Dew Point Humidity Wind Precip. Elev Updated Type
                   

Watches & Warnings

There are currently no watches in effect.